sensor_id;sensor_type;location;lat;lon;timestamp;pressure;altitude;pressure_sealevel;temperature;humidity
30636;BME280;17400;52.392;9.750;2023-04-26T00:02:11;101013.38;;;6.25;96.26
30636;BME280;17400;52.392;9.750;2023-04-26T00:04:39;101017.63;;;6.36;95.95
30636;BME280;17400;52.392;9.750;2023-04-26T00:07:09;101021.97;;;6.29;95.96
30636;BME280;17400;52.392;9.750;2023-04-26T00:09:38;101014.97;;;6.10;96.58
30636;BME280;17400;52.392;9.750;2023-04-26T00:12:09;101012.81;;;6.13;97.39
30636;BME280;17400;52.392;9.750;2023-04-26T00:14:38;101015.50;;;6.13;97.19
30636;BME280;17400;52.392;9.750;2023-04-26T00:17:05;101018.56;;;6.19;96.56
30636;BME280;17400;52.392;9.750;2023-04-26T00:19:33;101011.50;;;6.17;96.84
30636;BME280;17400;52.392;9.750;2023-04-26T00:22:01;101012.38;;;6.26;97.02
30636;BME280;17400;52.392;9.750;2023-04-26T00:24:32;101019.66;;;6.34;95.69
30636;BME280;17400;52.392;9.750;2023-04-26T00:27:00;101005.03;;;6.37;95.99
30636;BME280;17400;52.392;9.750;2023-04-26T00:29:30;101014.94;;;6.36;95.63
30636;BME280;17400;52.392;9.750;2023-04-26T00:31:58;101006.97;;;6.18;97.35
30636;BME280;17400;52.392;9.750;2023-04-26T00:34:31;101007.97;;;6.17;97.44
30636;BME280;17400;52.392;9.750;2023-04-26T00:36:59;101012.19;;;6.20;98.03
30636;BME280;17400;52.392;9.750;2023-04-26T00:39:27;101014.06;;;6.27;97.69
30636;BME280;17400;52.392;9.750;2023-04-26T00:41:56;101011.06;;;6.30;96.62
30636;BME280;17400;52.392;9.750;2023-04-26T00:44:27;101015.59;;;6.30;96.75
30636;BME280;17400;52.392;9.750;2023-04-26T00:46:54;101013.19;;;6.19;97.82
30636;BME280;17400;52.392;9.750;2023-04-26T00:49:23;101011.03;;;6.22;97.81
30636;BME280;17400;52.392;9.750;2023-04-26T00:51:51;100999.13;;;6.33;97.09
30636;BME280;17400;52.392;9.750;2023-04-26T00:54:20;101014.91;;;6.28;96.72
30636;BME280;17400;52.392;9.750;2023-04-26T00:56:47;101008.44;;;6.12;98.08
30636;BME280;17400;52.392;9.750;2023-04-26T00:59:20;101015.66;;;6.12;97.96
30636;BME280;17400;52.392;9.750;2023-04-26T01:01:47;101013.47;;;6.07;97.59
30636;BME280;17400;52.392;9.750;2023-04-26T01:04:15;101008.72;;;6.01;98.41
30636;BME280;17400;52.392;9.750;2023-04-26T01:06:44;101010.09;;;6.05;98.67
30636;BME280;17400;52.392;9.750;2023-04-26T01:09:12;101017.03;;;5.90;99.07
30636;BME280;17400;52.392;9.750;2023-04-26T01:11:41;101016.72;;;5.93;99.71
30636;BME280;17400;52.392;9.750;2023-04-26T01:14:10;101016.78;;;6.01;98.71
30636;BME280;17400;52.392;9.750;2023-04-26T01:16:39;101015.28;;;5.98;98.07
30636;BME280;17400;52.392;9.750;2023-04-26T01:19:07;101019.34;;;5.84;98.77
30636;BME280;17400;52.392;9.750;2023-04-26T01:21:36;101017.03;;;5.90;99.51
30636;BME280;17400;52.392;9.750;2023-04-26T01:24:06;101020.03;;;5.87;99.32
30636;BME280;17400;52.392;9.750;2023-04-26T01:26:35;101026.78;;;5.91;98.72
30636;BME280;17400;52.392;9.750;2023-04-26T01:29:16;101038.53;;;5.90;99.35
30636;BME280;17400;52.392;9.750;2023-04-26T01:31:47;101037.16;;;5.86;98.69
30636;BME280;17400;52.392;9.750;2023-04-26T01:34:15;101026.63;;;5.92;98.86
30636;BME280;17400;52.392;9.750;2023-04-26T01:36:42;101035.78;;;5.81;99.33
30636;BME280;17400;52.392;9.750;2023-04-26T01:39:11;101034.78;;;5.82;99.44
30636;BME280;17400;52.392;9.750;2023-04-26T01:41:39;101035.94;;;5.80;99.79
30636;BME280;17400;52.392;9.750;2023-04-26T01:44:07;101039.41;;;5.72;100.00
30636;BME280;17400;52.392;9.750;2023-04-26T01:46:34;101047.28;;;5.47;100.00
30636;BME280;17400;52.392;9.750;2023-04-26T01:49:02;101041.03;;;5.39;100.00
30636;BME280;17400;52.392;9.750;2023-04-26T01:51:29;101038.41;;;5.47;100.00
30636;BME280;17400;52.392;9.750;2023-04-26T01:53:58;101037.91;;;5.51;100.00
30636;BME280;17400;52.392;9.750;2023-04-26T01:56:27;101039.31;;;5.56;100.00
30636;BME280;17400;52.392;9.750;2023-04-26T01:58:55;101044.53;;;5.57;100.00
30636;BME280;17400;52.392;9.750;2023-04-26T02:01:23;101042.78;;;5.48;100.00
30636;BME280;17400;52.392;9.750;2023-04-26T02:03:51;101038.78;;;5.52;100.00
30636;BME280;17400;52.392;9.750;2023-04-26T02:06:19;101044.03;;;5.62;100.00
30636;BME280;17400;52.392;9.750;2023-04-26T02:08:47;101041.06;;;5.65;100.00
30636;BME280;17400;52.392;9.750;2023-04-26T02:11:15;101036.63;;;5.56;100.00
30636;BME280;17400;52.392;9.750;2023-04-26T02:13:44;101044.44;;;5.49;100.00
30636;BME280;17400;52.392;9.750;2023-04-26T02:16:11;101044.59;;;5.47;100.00
30636;BME280;17400;52.392;9.750;2023-04-26T02:18:41;101042.94;;;5.46;100.00
30636;BME280;17400;52.392;9.750;2023-04-26T02:21:10;101040.91;;;5.48;100.00
30636;BME280;17400;52.392;9.750;2023-04-26T02:23:38;101037.63;;;5.55;100.00
30636;BME280;17400;52.392;9.750;2023-04-26T02:26:06;101040.38;;;5.63;100.00
30636;BME280;17400;52.392;9.750;2023-04-26T02:28:33;101042.22;;;5.62;100.00
30636;BME280;17400;52.392;9.750;2023-04-26T02:31:03;101044.97;;;5.53;100.00
30636;BME280;17400;52.392;9.750;2023-04-26T02:33:31;101053.72;;;5.55;100.00
30636;BME280;17400;52.392;9.750;2023-04-26T02:36:01;101047.38;;;5.56;100.00
30636;BME280;17400;52.392;9.750;2023-04-26T02:38:29;101049.91;;;5.39;100.00
30636;BME280;17400;52.392;9.750;2023-04-26T02:40:57;101044.16;;;5.34;100.00
30636;BME280;17400;52.392;9.750;2023-04-26T02:43:26;101042.06;;;5.46;100.00
30636;BME280;17400;52.392;9.750;2023-04-26T02:45:53;101045.63;;;5.46;100.00
30636;BME280;17400;52.392;9.750;2023-04-26T02:48:25;101048.31;;;5.46;100.00
30636;BME280;17400;52.392;9.750;2023-04-26T02:50:52;101050.28;;;5.44;100.00
30636;BME280;17400;52.392;9.750;2023-04-26T02:53:20;101040.16;;;5.38;100.00
30636;BME280;17400;52.392;9.750;2023-04-26T02:55:48;101041.53;;;5.42;100.00
30636;BME280;17400;52.392;9.750;2023-04-26T02:58:16;101037.84;;;5.43;100.00
30636;BME280;17400;52.392;9.750;2023-04-26T03:00:45;101040.25;;;5.46;100.00
30636;BME280;17400;52.392;9.750;2023-04-26T03:03:13;101041.75;;;5.49;100.00
30636;BME280;17400;52.392;9.750;2023-04-26T03:05:43;101029.84;;;5.51;100.00
30636;BME280;17400;52.392;9.750;2023-04-26T03:08:11;101033.19;;;5.45;100.00
30636;BME280;17400;52.392;9.750;2023-04-26T03:10:39;101031.88;;;5.49;100.00
30636;BME280;17400;52.392;9.750;2023-04-26T03:13:06;101042.06;;;5.46;100.00
30636;BME280;17400;52.392;9.750;2023-04-26T03:15:34;101043.28;;;5.51;100.00
30636;BME280;17400;52.392;9.750;2023-04-26T03:18:02;101044.97;;;5.53;100.00
30636;BME280;17400;52.392;9.750;2023-04-26T03:20:29;101042.50;;;5.59;100.00
30636;BME280;17400;52.392;9.750;2023-04-26T03:22:58;101049.03;;;5.57;100.00
30636;BME280;17400;52.392;9.750;2023-04-26T03:25:26;101040.91;;;5.48;100.00
30636;BME280;17400;52.392;9.750;2023-04-26T03:27:54;101036.53;;;5.47;100.00
30636;BME280;17400;52.392;9.750;2023-04-26T03:30:22;101030.13;;;5.40;100.00
30636;BME280;17400;52.392;9.750;2023-04-26T03:32:49;101040.00;;;5.40;100.00
30636;BME280;17400;52.392;9.750;2023-04-26T03:35:17;101034.34;;;5.43;100.00
30636;BME280;17400;52.392;9.750;2023-04-26T03:37:45;101031.50;;;5.44;100.00
30636;BME280;17400;52.392;9.750;2023-04-26T03:40:14;101033.56;;;5.32;100.00
30636;BME280;17400;52.392;9.750;2023-04-26T03:42:42;101030.88;;;5.32;100.00
30636;BME280;17400;52.392;9.750;2023-04-26T03:45:10;101039.56;;;5.44;100.00
30636;BME280;17400;52.392;9.750;2023-04-26T03:47:37;101038.63;;;5.36;100.00
30636;BME280;17400;52.392;9.750;2023-04-26T03:50:06;101038.78;;;5.34;100.00
30636;BME280;17400;52.392;9.750;2023-04-26T03:52:34;101042.09;;;5.10;100.00
30636;BME280;17400;52.392;9.750;2023-04-26T03:55:02;101044.72;;;5.02;100.00
30636;BME280;17400;52.392;9.750;2023-04-26T03:57:31;101047.53;;;5.00;100.00
30636;BME280;17400;52.392;9.750;2023-04-26T03:59:59;101046.09;;;5.06;100.00
30636;BME280;17400;52.392;9.750;2023-04-26T04:02:26;101037.50;;;5.02;100.00
30636;BME280;17400;52.392;9.750;2023-04-26T04:04:54;101039.47;;;5.00;100.00
30636;BME280;17400;52.392;9.750;2023-04-26T04:07:22;101035.28;;;4.97;100.00
30636;BME280;17400;52.392;9.750;2023-04-26T04:09:50;101039.56;;;5.08;100.00
30636;BME280;17400;52.392;9.750;2023-04-26T04:12:18;101053.38;;;5.13;100.00
30636;BME280;17400;52.392;9.750;2023-04-26T04:14:47;101047.38;;;5.20;100.00
30636;BME280;17400;52.392;9.750;2023-04-26T04:17:14;101047.38;;;5.20;100.00
30636;BME280;17400;52.392;9.750;2023-04-26T04:19:42;101043.38;;;5.24;100.00
30636;BME280;17400;52.392;9.750;2023-04-26T04:22:10;101037.19;;;5.41;100.00
30636;BME280;17400;52.392;9.750;2023-04-26T04:24:38;101042.06;;;5.46;100.00
30636;BME280;17400;52.392;9.750;2023-04-26T04:27:06;101050.41;;;5.61;100.00
30636;BME280;17400;52.392;9.750;2023-04-26T04:29:34;101048.09;;;5.66;100.00
30636;BME280;17400;52.392;9.750;2023-04-26T04:32:03;101053.78;;;5.63;100.00
30636;BME280;17400;52.392;9.750;2023-04-26T04:34:33;101053.34;;;5.67;100.00
30636;BME280;17400;52.392;9.750;2023-04-26T04:37:01;101056.03;;;5.67;100.00
30636;BME280;17400;52.392;9.750;2023-04-26T04:39:29;101064.31;;;5.56;100.00
30636;BME280;17400;52.392;9.750;2023-04-26T04:41:57;101067.94;;;5.29;100.00
30636;BME280;17400;52.392;9.750;2023-04-26T04:44:25;101059.50;;;5.24;100.00
30636;BME280;17400;52.392;9.750;2023-04-26T04:46:53;101060.75;;;5.29;100.00
30636;BME280;17400;52.392;9.750;2023-04-26T04:49:23;101066.34;;;5.36;100.00
30636;BME280;17400;52.392;9.750;2023-04-26T04:51:51;101069.84;;;5.37;100.00
30636;BME280;17400;52.392;9.750;2023-04-26T04:54:19;101057.88;;;5.49;100.00
30636;BME280;17400;52.392;9.750;2023-04-26T04:56:46;101070.00;;;5.35;100.00
30636;BME280;17400;52.392;9.750;2023-04-26T04:59:14;101064.13;;;5.13;100.00
30636;BME280;17400;52.392;9.750;2023-04-26T05:01:42;101069.56;;;5.22;100.00
30636;BME280;17400;52.392;9.750;2023-04-26T05:04:10;101070.34;;;5.32;100.00
30636;BME280;17400;52.392;9.750;2023-04-26T05:06:39;101075.00;;;5.30;100.00
30636;BME280;17400;52.392;9.750;2023-04-26T05:09:07;101080.28;;;5.40;100.00
30636;BME280;17400;52.392;9.750;2023-04-26T05:11:38;101077.75;;;5.38;100.00
30636;BME280;17400;52.392;9.750;2023-04-26T05:14:07;101068.69;;;5.39;100.00
30636;BME280;17400;52.392;9.750;2023-04-26T05:16:34;101068.94;;;5.28;100.00
30636;BME280;17400;52.392;9.750;2023-04-26T05:19:03;101070.63;;;5.29;100.00
30636;BME280;17400;52.392;9.750;2023-04-26T05:21:34;101076.53;;;5.32;100.00
30636;BME280;17400;52.392;9.750;2023-04-26T05:24:04;101082.22;;;5.29;100.00
30636;BME280;17400;52.392;9.750;2023-04-26T05:26:34;101088.41;;;5.30;100.00
30636;BME280;17400;52.392;9.750;2023-04-26T05:29:02;101090.34;;;5.38;100.00
30636;BME280;17400;52.392;9.750;2023-04-26T05:31:30;101093.84;;;5.38;100.00
30636;BME280;17400;52.392;9.750;2023-04-26T05:33:58;101093.13;;;5.28;100.00
30636;BME280;17400;52.392;9.750;2023-04-26T05:36:25;101087.63;;;5.20;100.00
30636;BME280;17400;52.392;9.750;2023-04-26T05:38:55;101087.44;;;5.31;100.00
30636;BME280;17400;52.392;9.750;2023-04-26T05:41:24;101088.81;;;5.35;100.00
30636;BME280;17400;52.392;9.750;2023-04-26T05:43:52;101093.41;;;5.43;100.00
30636;BME280;17400;52.392;9.750;2023-04-26T05:46:20;101098.22;;;5.39;100.00
30636;BME280;17400;52.392;9.750;2023-04-26T05:48:47;101099.22;;;5.38;100.00
30636;BME280;17400;52.392;9.750;2023-04-26T05:51:15;101102.84;;;5.47;100.00
30636;BME280;17400;52.392;9.750;2023-04-26T05:53:43;101094.63;;;5.48;100.00
30636;BME280;17400;52.392;9.750;2023-04-26T05:56:11;101098.84;;;5.51;100.00
30636;BME280;17400;52.392;9.750;2023-04-26T05:58:40;101099.06;;;5.58;100.00
30636;BME280;17400;52.392;9.750;2023-04-26T06:01:07;101090.84;;;5.77;100.00
30636;BME280;17400;52.392;9.750;2023-04-26T06:03:35;101090.56;;;5.89;100.00
30636;BME280;17400;52.392;9.750;2023-04-26T06:06:04;101092.81;;;5.93;100.00
30636;BME280;17400;52.392;9.750;2023-04-26T06:08:32;101087.22;;;6.05;100.00
30636;BME280;17400;52.392;9.750;2023-04-26T06:11:00;101099.69;;;6.14;100.00
30636;BME280;17400;52.392;9.750;2023-04-26T06:13:28;101100.19;;;6.17;100.00
30636;BME280;17400;52.392;9.750;2023-04-26T06:15:58;101101.94;;;6.27;100.00
30636;BME280;17400;52.392;9.750;2023-04-26T06:18:26;101100.41;;;6.24;100.00
30636;BME280;17400;52.392;9.750;2023-04-26T06:20:53;101101.31;;;6.33;100.00
30636;BME280;17400;52.392;9.750;2023-04-26T06:23:21;101096.75;;;6.33;100.00
30636;BME280;17400;52.392;9.750;2023-04-26T06:25:48;101096.00;;;6.49;99.09
30636;BME280;17400;52.392;9.750;2023-04-26T06:28:16;101098.06;;;6.56;98.65
30636;BME280;17400;52.392;9.750;2023-04-26T06:30:44;101093.31;;;6.49;99.51
30636;BME280;17400;52.392;9.750;2023-04-26T06:33:13;101098.22;;;6.54;100.00
30636;BME280;17400;52.392;9.750;2023-04-26T06:35:41;101105.13;;;6.57;98.30
30636;BME280;17400;52.392;9.750;2023-04-26T06:38:08;101103.56;;;6.46;98.54
30636;BME280;17400;52.392;9.750;2023-04-26T06:40:38;101103.56;;;6.46;98.50
30636;BME280;17400;52.392;9.750;2023-04-26T06:43:05;101108.28;;;6.52;98.24
30636;BME280;17400;52.392;9.750;2023-04-26T06:45:33;101114.75;;;6.33;96.89
30636;BME280;17400;52.392;9.750;2023-04-26T06:48:01;101107.94;;;6.47;98.09
30636;BME280;17400;52.392;9.750;2023-04-26T06:50:31;101111.88;;;6.61;96.51
30636;BME280;17400;52.392;9.750;2023-04-26T06:52:59;101098.97;;;6.73;95.80
30636;BME280;17400;52.392;9.750;2023-04-26T06:55:26;101101.22;;;6.94;94.53
30636;BME280;17400;52.392;9.750;2023-04-26T06:57:55;101108.94;;;6.89;94.43
30636;BME280;17400;52.392;9.750;2023-04-26T07:00:23;101110.56;;;7.16;93.97
30636;BME280;17400;52.392;9.750;2023-04-26T07:02:50;101110.38;;;7.17;92.40
30636;BME280;17400;52.392;9.750;2023-04-26T07:05:18;101113.06;;;7.17;92.54
30636;BME280;17400;52.392;9.750;2023-04-26T07:07:48;101112.25;;;7.25;93.28
30636;BME280;17400;52.392;9.750;2023-04-26T07:10:16;101115.13;;;7.24;92.20
30636;BME280;17400;52.392;9.750;2023-04-26T07:12:44;101122.16;;;7.16;91.70
30636;BME280;17400;52.392;9.750;2023-04-26T07:15:12;101129.59;;;7.31;91.46
30636;BME280;17400;52.392;9.750;2023-04-26T07:17:41;101127.88;;;7.22;89.79
30636;BME280;17400;52.392;9.750;2023-04-26T07:20:09;101125.72;;;7.25;90.04
30636;BME280;17400;52.392;9.750;2023-04-26T07:22:37;101122.69;;;7.37;89.55
30636;BME280;17400;52.392;9.750;2023-04-26T07:25:07;101124.72;;;7.34;89.74
30636;BME280;17400;52.392;9.750;2023-04-26T07:27:35;101123.72;;;7.60;88.96
30636;BME280;17400;52.392;9.750;2023-04-26T07:30:03;101118.03;;;7.72;87.96
30636;BME280;17400;52.392;9.750;2023-04-26T07:32:31;101116.50;;;7.94;85.05
30636;BME280;17400;52.392;9.750;2023-04-26T07:34:59;101115.81;;;7.92;86.03
30636;BME280;17400;52.392;9.750;2023-04-26T07:37:44;101112.13;;;7.84;86.71
30636;BME280;17400;52.392;9.750;2023-04-26T07:40:13;101124.59;;;7.69;86.78
30636;BME280;17400;52.392;9.750;2023-04-26T07:42:41;101124.56;;;7.77;86.85
30636;BME280;17400;52.392;9.750;2023-04-26T07:45:09;101126.44;;;7.85;86.47
30636;BME280;17400;52.392;9.750;2023-04-26T07:47:37;101119.88;;;7.79;85.76
30636;BME280;17400;52.392;9.750;2023-04-26T07:50:07;101122.53;;;7.71;86.14
30636;BME280;17400;52.392;9.750;2023-04-26T07:52:35;101121.22;;;7.92;85.02
30636;BME280;17400;52.392;9.750;2023-04-26T07:55:03;101121.38;;;7.90;85.81
30636;BME280;17400;52.392;9.750;2023-04-26T07:57:32;101120.19;;;8.01;85.47
30636;BME280;17400;52.392;9.750;2023-04-26T08:00:00;101143.09;;;7.72;85.57
30636;BME280;17400;52.392;9.750;2023-04-26T08:02:28;101129.66;;;7.89;84.80
30636;BME280;17400;52.392;9.750;2023-04-26T08:05:09;101126.25;;;7.95;83.25
30636;BME280;17400;52.392;9.750;2023-04-26T08:07:37;101119.84;;;8.12;84.15
30636;BME280;17400;52.392;9.750;2023-04-26T08:10:06;101120.84;;;8.20;83.35
30636;BME280;17400;52.392;9.750;2023-04-26T08:12:36;101120.81;;;8.36;79.29
30636;BME280;17400;52.392;9.750;2023-04-26T08:15:05;101133.09;;;8.39;77.21
30636;BME280;17400;52.392;9.750;2023-04-26T08:17:33;101111.84;;;8.52;77.01
30636;BME280;17400;52.392;9.750;2023-04-26T08:20:01;101107.28;;;8.53;76.50
30636;BME280;17400;52.392;9.750;2023-04-26T08:22:30;101112.16;;;8.65;72.05
30636;BME280;17400;52.392;9.750;2023-04-26T08:24:59;101116.69;;;8.73;68.40
30636;BME280;17400;52.392;9.750;2023-04-26T08:27:26;101118.59;;;8.96;68.96
30636;BME280;17400;52.392;9.750;2023-04-26T08:29:56;101111.50;;;8.95;65.31
30636;BME280;17400;52.392;9.750;2023-04-26T08:32:23;101116.22;;;8.93;66.89
30636;BME280;17400;52.392;9.750;2023-04-26T08:34:51;101106.47;;;8.83;67.40
30636;BME280;17400;52.392;9.750;2023-04-26T08:37:19;101105.41;;;8.61;64.28
30636;BME280;17400;52.392;9.750;2023-04-26T08:39:47;101109.66;;;8.39;66.36
30636;BME280;17400;52.392;9.750;2023-04-26T08:42:16;101114.88;;;8.41;66.32
30636;BME280;17400;52.392;9.750;2023-04-26T08:44:44;101124.16;;;8.46;62.90
30636;BME280;17400;52.392;9.750;2023-04-26T08:47:16;101116.53;;;8.58;59.53
30636;BME280;17400;52.392;9.750;2023-04-26T08:49:45;101118.31;;;8.82;60.03
30636;BME280;17400;52.392;9.750;2023-04-26T08:52:15;101124.31;;;8.93;58.72
30636;BME280;17400;52.392;9.750;2023-04-26T08:54:49;101124.81;;;8.96;58.80
30636;BME280;17400;52.392;9.750;2023-04-26T08:57:17;101120.25;;;8.97;56.71
30636;BME280;17400;52.392;9.750;2023-04-26T08:59:45;101118.31;;;8.82;56.00
30636;BME280;17400;52.392;9.750;2023-04-26T09:02:17;101126.38;;;8.91;56.99
30636;BME280;17400;52.392;9.750;2023-04-26T09:04:46;101116.22;;;9.01;57.88
30636;BME280;17400;52.392;9.750;2023-04-26T09:07:19;101122.75;;;9.07;58.89
30636;BME280;17400;52.392;9.750;2023-04-26T09:09:48;101118.91;;;9.01;56.67
30636;BME280;17400;52.392;9.750;2023-04-26T09:12:18;101116.94;;;8.87;55.93
30636;BME280;17400;52.392;9.750;2023-04-26T09:14:47;101114.38;;;8.93;55.61
30636;BME280;17400;52.392;9.750;2023-04-26T09:17:30;101119.06;;;8.99;55.25
30636;BME280;17400;52.392;9.750;2023-04-26T09:19:59;101115.16;;;9.02;55.36
30636;BME280;17400;52.392;9.750;2023-04-26T09:22:29;101119.91;;;9.00;56.51
30636;BME280;17400;52.392;9.750;2023-04-26T09:24:57;101104.78;;;8.91;57.69
30636;BME280;17400;52.392;9.750;2023-04-26T09:27:32;101115.59;;;9.14;56.77
30636;BME280;17400;52.392;9.750;2023-04-26T09:30:04;101126.19;;;9.24;55.34
30636;BME280;17400;52.392;9.750;2023-04-26T09:32:45;101128.84;;;9.32;53.02
30636;BME280;17400;52.392;9.750;2023-04-26T09:35:28;101121.00;;;9.45;52.79
30636;BME280;17400;52.392;9.750;2023-04-26T09:37:58;101116.59;;;9.44;52.21
30636;BME280;17400;52.392;9.750;2023-04-26T09:40:37;101117.28;;;9.46;51.22
30636;BME280;17400;52.392;9.750;2023-04-26T09:43:07;101111.03;;;9.46;49.65
30636;BME280;17400;52.392;9.750;2023-04-26T09:45:44;101114.56;;;9.46;50.86
30636;BME280;17400;52.392;9.750;2023-04-26T09:48:16;101118.41;;;9.29;51.66
30636;BME280;17400;52.392;9.750;2023-04-26T09:50:45;101121.50;;;9.17;53.38
30636;BME280;17400;52.392;9.750;2023-04-26T09:53:24;101124.50;;;9.23;53.65
30636;BME280;17400;52.392;9.750;2023-04-26T09:55:54;101125.19;;;9.25;52.91
30636;BME280;17400;52.392;9.750;2023-04-26T09:58:21;101123.69;;;9.22;52.57
30636;BME280;17400;52.392;9.750;2023-04-26T10:00:50;101118.16;;;9.15;51.63
30636;BME280;17400;52.392;9.750;2023-04-26T10:03:21;101126.19;;;9.24;50.87
30636;BME280;17400;52.392;9.750;2023-04-26T10:05:49;101124.47;;;9.31;51.23
30636;BME280;17400;52.392;9.750;2023-04-26T10:08:17;101129.09;;;9.45;50.90
30636;BME280;17400;52.392;9.750;2023-04-26T10:10:45;101124.41;;;9.62;52.12
30636;BME280;17400;52.392;9.750;2023-04-26T10:13:14;101125.66;;;9.75;52.90
30636;BME280;17400;52.392;9.750;2023-04-26T10:15:42;101131.03;;;9.60;53.37
30636;BME280;17400;52.392;9.750;2023-04-26T10:18:09;101126.28;;;9.62;52.41
30636;BME280;17400;52.392;9.750;2023-04-26T10:20:40;101126.03;;;9.48;51.63
30636;BME280;17400;52.392;9.750;2023-04-26T10:23:14;101122.00;;;9.67;51.50
30636;BME280;17400;52.392;9.750;2023-04-26T10:25:46;101125.53;;;9.68;49.35
30636;BME280;17400;52.392;9.750;2023-04-26T10:28:14;101123.25;;;9.80;48.67
30636;BME280;17400;52.392;9.750;2023-04-26T10:30:56;101119.53;;;9.81;48.96
30636;BME280;17400;52.392;9.750;2023-04-26T10:33:24;101112.88;;;9.69;49.60
30636;BME280;17400;52.392;9.750;2023-04-26T10:36:08;101109.69;;;9.65;50.23
30636;BME280;17400;52.392;9.750;2023-04-26T10:38:41;101120.81;;;9.70;50.37
30636;BME280;17400;52.392;9.750;2023-04-26T10:41:33;101113.34;;;9.72;50.58
30636;BME280;17400;52.392;9.750;2023-04-26T10:47:04;101113.84;;;9.53;53.02
30636;BME280;17400;52.392;9.750;2023-04-26T10:49:43;101112.28;;;9.58;53.50
30636;BME280;17400;52.392;9.750;2023-04-26T10:52:14;101108.56;;;9.59;52.10
30636;BME280;17400;52.392;9.750;2023-04-26T10:54:55;101118.34;;;9.83;51.19
30636;BME280;17400;52.392;9.750;2023-04-26T10:57:50;101106.78;;;9.90;47.18
30636;BME280;17400;52.392;9.750;2023-04-26T11:00:29;101121.34;;;9.89;45.85
30636;BME280;17400;52.392;9.750;2023-04-26T11:03:02;101107.28;;;10.08;46.84
30636;BME280;17400;52.392;9.750;2023-04-26T11:05:53;101107.84;;;10.18;47.19
30636;BME280;17400;52.392;9.750;2023-04-26T11:08:26;101103.09;;;10.06;48.16
30636;BME280;17400;52.392;9.750;2023-04-26T11:10:58;101103.38;;;10.11;47.65
30636;BME280;17400;52.392;9.750;2023-04-26T11:13:25;101102.34;;;10.12;46.72
30636;BME280;17400;52.392;9.750;2023-04-26T11:15:58;101094.81;;;9.84;46.31
30636;BME280;17400;52.392;9.750;2023-04-26T11:18:29;101099.63;;;9.97;46.31
30636;BME280;17400;52.392;9.750;2023-04-26T11:20:57;101108.59;;;10.12;47.26
30636;BME280;17400;52.392;9.750;2023-04-26T11:23:27;101103.88;;;10.29;47.33
30636;BME280;17400;52.392;9.750;2023-04-26T11:25:56;101108.06;;;10.32;46.70
30636;BME280;17400;52.392;9.750;2023-04-26T11:28:24;101112.91;;;10.22;46.48
30636;BME280;17400;52.392;9.750;2023-04-26T11:30:52;101104.31;;;10.18;46.26
30636;BME280;17400;52.392;9.750;2023-04-26T11:33:21;101104.88;;;10.28;46.04
30636;BME280;17400;52.392;9.750;2023-04-26T11:35:49;101105.44;;;10.24;45.89
30636;BME280;17400;52.392;9.750;2023-04-26T11:38:20;101099.50;;;10.43;46.12
30636;BME280;17400;52.392;9.750;2023-04-26T11:40:54;101088.09;;;10.63;46.67
30636;BME280;17400;52.392;9.750;2023-04-26T11:43:28;101098.28;;;10.76;45.89
30636;BME280;17400;52.392;9.750;2023-04-26T11:45:58;101089.97;;;10.77;46.00
30636;BME280;17400;52.392;9.750;2023-04-26T11:48:26;101090.94;;;10.91;45.40
30636;BME280;17400;52.392;9.750;2023-04-26T11:50:55;101087.50;;;10.97;44.15
30636;BME280;17400;52.392;9.750;2023-04-26T11:53:34;101090.47;;;11.03;43.82
30636;BME280;17400;52.392;9.750;2023-04-26T11:56:05;101083.28;;;10.95;44.18
30636;BME280;17400;52.392;9.750;2023-04-26T11:58:39;101087.75;;;11.03;44.04
30636;BME280;17400;52.392;9.750;2023-04-26T12:01:10;101087.59;;;10.89;43.16
30636;BME280;17400;52.392;9.750;2023-04-26T12:03:37;101087.88;;;10.94;43.43
30636;BME280;17400;52.392;9.750;2023-04-26T12:06:06;101093.84;;;10.90;43.03
30636;BME280;17400;52.392;9.750;2023-04-26T12:08:33;101091.44;;;10.80;43.69
30636;BME280;17400;52.392;9.750;2023-04-26T12:11:01;101102.50;;;10.48;45.56
30636;BME280;17400;52.392;9.750;2023-04-26T12:13:30;101102.38;;;10.57;45.89
30636;BME280;17400;52.392;9.750;2023-04-26T12:15:58;101095.22;;;10.64;45.96
30636;BME280;17400;52.392;9.750;2023-04-26T12:18:31;101104.53;;;10.61;45.56
30636;BME280;17400;52.392;9.750;2023-04-26T12:20:59;101099.03;;;10.70;45.49
30636;BME280;17400;52.392;9.750;2023-04-26T12:23:36;101104.91;;;10.73;44.99
30636;BME280;17400;52.392;9.750;2023-04-26T12:26:06;101099.50;;;10.73;44.69
30636;BME280;17400;52.392;9.750;2023-04-26T12:28:38;101095.94;;;10.58;44.42
30636;BME280;17400;52.392;9.750;2023-04-26T12:31:06;101096.44;;;10.61;44.91
30636;BME280;17400;52.392;9.750;2023-04-26T12:33:34;101096.03;;;10.64;44.75
30636;BME280;17400;52.392;9.750;2023-04-26T12:36:07;101095.84;;;10.66;44.64
30636;BME280;17400;52.392;9.750;2023-04-26T12:38:35;101097.06;;;10.63;44.77
30636;BME280;17400;52.392;9.750;2023-04-26T12:41:03;101098.03;;;10.56;45.61
30636;BME280;17400;52.392;9.750;2023-04-26T12:43:30;101101.84;;;10.61;46.06
30636;BME280;17400;52.392;9.750;2023-04-26T12:46:00;101106.16;;;10.56;46.21
30636;BME280;17400;52.392;9.750;2023-04-26T12:48:28;101106.41;;;10.46;46.33
30636;BME280;17400;52.392;9.750;2023-04-26T12:50:55;101115.75;;;10.43;46.41
30636;BME280;17400;52.392;9.750;2023-04-26T12:53:23;101095.94;;;10.58;46.76
30636;BME280;17400;52.392;9.750;2023-04-26T12:55:51;101115.56;;;10.60;46.17
30636;BME280;17400;52.392;9.750;2023-04-26T12:58:18;101116.13;;;10.55;44.92
30636;BME280;17400;52.392;9.750;2023-04-26T13:00:47;101112.19;;;10.58;45.19
30636;BME280;17400;52.392;9.750;2023-04-26T13:03:18;101112.78;;;10.53;44.84
30636;BME280;17400;52.392;9.750;2023-04-26T13:05:45;101105.75;;;10.59;45.45
30636;BME280;17400;52.392;9.750;2023-04-26T13:08:14;101102.13;;;10.66;45.91
30636;BME280;17400;52.392;9.750;2023-04-26T13:10:43;101103.97;;;10.66;46.09